Time;durP1;ratioP1;P1;durP2;ratioP2;P2;SDS_P1;SDS_P2;PMS_P1;PMS_P2;Temp;Humidity;BMP_temperature;BMP_pressure;BME280_temperature;BME280_humidity;BME280_pressure;Samples;Min_cycle;Max_cycle;Signal;HPM_P1;HPM_P2
2021/05/27 00:01:56;;;;;;;2.90;0.88;;;15.40;96.70;;;;;;5101623;28;20050;-76
2021/05/27 00:04:25;;;;;;;3.80;0.90;;;15.30;96.70;;;;;;5084994;28;20101;-76
2021/05/27 00:06:54;;;;;;;4.65;1.05;;;15.30;96.70;;;;;;5097704;28;20253;-77
2021/05/27 00:09:23;;;;;;;6.93;1.30;;;15.20;96.70;;;;;;5102436;27;20039;-77
2021/05/27 00:11:53;;;;;;;3.53;1.10;;;15.20;96.70;;;;;;5100615;28;20044;-77
2021/05/27 00:14:23;;;;;;;4.88;1.20;;;15.20;96.70;;;;;;5101818;27;20587;-77
2021/05/27 00:16:54;;;;;;;4.85;1.10;;;15.20;96.70;;;;;;5109279;27;20136;-76
2021/05/27 00:19:23;;;;;;;4.57;1.30;;;15.10;96.70;;;;;;5095263;28;20464;-77
2021/05/27 00:21:52;;;;;;;4.10;0.90;;;15.00;96.70;;;;;;5085088;28;20050;-76
2021/05/27 00:24:22;;;;;;;4.07;0.85;;;15.00;96.70;;;;;;5099317;28;20104;-76
2021/05/27 00:26:51;;;;;;;4.15;1.00;;;14.90;96.70;;;;;;5100469;28;20043;-76
2021/05/27 00:29:20;;;;;;;4.68;1.20;;;14.90;96.70;;;;;;5102036;27;20075;-77
2021/05/27 00:31:49;;;;;;;2.95;0.95;;;14.90;96.70;;;;;;5100687;28;20031;-76
2021/05/27 00:34:21;;;;;;;5.15;0.80;;;14.90;96.70;;;;;;5107098;27;20039;-76
2021/05/27 00:36:50;;;;;;;2.17;0.90;;;14.80;96.70;;;;;;5079968;28;20044;-77
2021/05/27 00:39:20;;;;;;;3.53;1.05;;;14.80;96.70;;;;;;5115563;27;20043;-76
2021/05/27 00:41:49;;;;;;;3.08;0.88;;;14.90;96.70;;;;;;5100651;27;20127;-77
2021/05/27 00:44:34;;;;;;;2.92;0.70;;;14.80;96.70;;;;;;5100292;27;20055;-76
2021/05/27 00:47:09;;;;;;;3.05;0.80;;;14.80;96.70;;;;;;5098638;28;20043;-77
2021/05/27 00:49:42;;;;;;;3.78;0.90;;;14.70;96.70;;;;;;5101922;27;20448;-76
2021/05/27 00:52:13;;;;;;;3.78;1.40;;;14.70;96.70;;;;;;5097808;28;20040;-77
2021/05/27 00:54:43;;;;;;;3.45;0.90;;;14.70;96.70;;;;;;5100081;27;20051;-77
2021/05/27 00:57:36;;;;;;;3.25;0.98;;;14.70;96.70;;;;;;5098424;28;20060;-77
2021/05/27 01:00:13;;;;;;;3.78;1.10;;;14.70;96.70;;;;;;5075097;28;20516;-76
2021/05/27 01:02:43;;;;;;;4.13;0.82;;;14.70;96.70;;;;;;5101796;27;20055;-78
2021/05/27 01:05:16;;;;;;;3.03;0.80;;;14.70;96.70;;;;;;5101510;28;20126;-76
2021/05/27 01:07:48;;;;;;;4.97;1.20;;;14.70;96.70;;;;;;5099237;28;20043;-77
2021/05/27 01:10:38;;;;;;;5.97;1.17;;;14.60;96.70;;;;;;5100462;27;20047;-77
2021/05/27 01:13:10;;;;;;;5.88;0.90;;;14.60;96.70;;;;;;5099965;27;20301;-76
2021/05/27 01:15:42;;;;;;;3.33;1.05;;;14.50;96.70;;;;;;5107689;27;20051;-78
2021/05/27 01:18:14;;;;;;;5.97;1.23;;;14.60;96.70;;;;;;5104159;27;20054;-77
2021/05/27 01:20:49;;;;;;;5.60;1.00;;;14.60;96.70;;;;;;5105747;27;20127;-76
2021/05/27 01:23:24;;;;;;;6.27;0.77;;;14.60;96.70;;;;;;5100647;27;20555;-76
2021/05/27 01:25:55;;;;;;;4.63;0.90;;;14.60;96.70;;;;;;5101031;27;20039;-77
2021/05/27 01:28:28;;;;;;;2.45;0.80;;;14.60;96.70;;;;;;5098169;28;20337;-76
2021/05/27 01:30:58;;;;;;;3.60;1.10;;;14.60;96.70;;;;;;5096981;27;20106;-76
2021/05/27 01:33:32;;;;;;;5.32;1.00;;;14.60;96.70;;;;;;5099147;27;20040;-76
2021/05/27 01:36:04;;;;;;;6.05;1.23;;;14.50;96.70;;;;;;5096876;28;20040;-76
2021/05/27 01:38:34;;;;;;;3.65;1.10;;;14.50;96.70;;;;;;5097507;28;20043;-76
2021/05/27 01:41:05;;;;;;;3.38;1.00;;;14.50;96.70;;;;;;5080820;28;20043;-76
2021/05/27 01:43:36;;;;;;;3.63;1.10;;;14.40;96.70;;;;;;5098520;28;20187;-76
2021/05/27 01:46:10;;;;;;;2.97;0.77;;;14.40;96.70;;;;;;5101939;27;20038;-76
2021/05/27 01:48:44;;;;;;;4.43;0.93;;;14.40;96.70;;;;;;5099263;28;20564;-76
2021/05/27 01:51:18;;;;;;;4.05;0.90;;;14.50;96.70;;;;;;5098536;27;20043;-76
2021/05/27 01:53:51;;;;;;;2.63;1.08;;;14.40;96.70;;;;;;5098878;28;20046;-76
2021/05/27 01:56:29;;;;;;;3.35;0.80;;;14.40;96.70;;;;;;5084681;28;20052;-76
2021/05/27 01:59:24;;;;;;;3.88;1.05;;;14.30;96.70;;;;;;5097011;28;20032;-76
2021/05/27 02:02:15;;;;;;;1.75;0.80;;;14.30;96.70;;;;;;5083721;28;20044;-76
2021/05/27 02:05:01;;;;;;;4.18;1.02;;;14.30;96.70;;;;;;5080917;28;20195;-76
2021/05/27 02:07:36;;;;;;;3.40;0.90;;;14.20;96.70;;;;;;5097877;28;20679;-76
2021/05/27 02:10:23;;;;;;;;;;;14.20;96.70;;;;;;5101199;28;20058;-76
2021/05/27 02:12:56;;;;;;;3.95;0.98;;;14.20;96.70;;;;;;5086603;28;20014;-76
2021/05/27 02:15:34;;;;;;;4.00;1.10;;;14.10;96.70;;;;;;5102843;28;20096;-76
2021/05/27 02:18:05;;;;;;;2.88;0.80;;;14.10;96.70;;;;;;5100135;28;20230;-76
2021/05/27 02:20:34;;;;;;;3.35;0.90;;;14.10;96.70;;;;;;5101236;28;20039;-76
2021/05/27 02:23:03;;;;;;;3.13;0.82;;;14.10;96.70;;;;;;5098777;28;20278;-77
2021/05/27 02:25:46;;;;;;;4.40;0.93;;;14.10;96.70;;;;;;5099539;28;20127;-76
2021/05/27 02:28:40;;;;;;;3.30;0.85;;;14.10;96.70;;;;;;5100022;28;20047;-76
2021/05/27 02:31:10;;;;;;;5.55;1.38;;;14.20;96.70;;;;;;5099989;28;20048;-76
2021/05/27 02:33:45;;;;;;;3.13;0.80;;;14.20;96.70;;;;;;5097462;28;20047;-76
2021/05/27 02:36:22;;;;;;;3.45;1.15;;;14.10;96.70;;;;;;5097554;28;20044;-76
2021/05/27 02:38:53;;;;;;;4.80;1.40;;;14.10;96.70;;;;;;5080405;28;20044;-76
2021/05/27 02:41:24;;;;;;;4.15;1.15;;;14.10;96.70;;;;;;5099484;28;20047;-76
2021/05/27 02:43:54;;;;;;;2.25;1.10;;;14.10;96.70;;;;;;5086880;27;20101;-76
2021/05/27 02:46:26;;;;;;;5.82;1.55;;;14.20;96.70;;;;;;5085815;28;20146;-76
2021/05/27 02:48:58;;;;;;;2.15;1.05;;;14.20;96.70;;;;;;5084532;28;20039;-76
2021/05/27 02:51:40;;;;;;;4.78;1.38;;;14.10;96.70;;;;;;5102658;28;20032;-76
2021/05/27 02:54:11;;;;;;;3.63;0.90;;;14.10;96.70;;;;;;5100544;28;20055;-76
2021/05/27 02:56:45;;;;;;;3.03;1.20;;;14.00;96.70;;;;;;5103390;28;20130;-76
2021/05/27 02:59:19;;;;;;;5.78;1.17;;;13.90;96.70;;;;;;5105113;27;20150;-76
2021/05/27 03:01:51;;;;;;;4.10;0.90;;;13.90;96.70;;;;;;5105008;28;20378;-76
2021/05/27 03:04:22;;;;;;;2.55;0.90;;;13.90;96.70;;;;;;5109339;27;20047;-76
2021/05/27 03:06:59;;;;;;;4.18;1.23;;;13.90;96.70;;;;;;5102724;27;20044;-76
2021/05/27 03:09:29;;;;;;;1.30;0.60;;;13.80;96.70;;;;;;5104314;27;20409;-76
2021/05/27 03:12:02;;;;;;;4.95;1.27;;;13.70;96.70;;;;;;5084866;27;20047;-76
2021/05/27 03:14:34;;;;;;;3.33;0.65;;;13.80;96.70;;;;;;5110079;27;20044;-76
2021/05/27 03:17:09;;;;;;;2.75;0.85;;;13.70;96.70;;;;;;5103927;28;20461;-76
2021/05/27 03:19:38;;;;;;;2.35;0.90;;;13.70;96.70;;;;;;5100297;27;20047;-76
2021/05/27 03:22:09;;;;;;;4.55;0.88;;;13.70;96.70;;;;;;5084859;28;20044;-76
2021/05/27 03:24:41;;;;;;;3.83;1.17;;;13.70;96.70;;;;;;5099859;27;20536;-76
2021/05/27 03:27:16;;;;;;;2.92;0.80;;;13.60;96.70;;;;;;5100714;28;20039;-76
2021/05/27 03:29:49;;;;;;;4.47;1.00;;;13.60;96.70;;;;;;5101666;27;20056;-76
2021/05/27 03:32:21;;;;;;;5.13;1.17;;;13.60;96.70;;;;;;5098457;28;20040;-76
2021/05/27 03:34:51;;;;;;;2.00;1.10;;;13.60;96.70;;;;;;5099121;27;20394;-76
2021/05/27 03:37:29;;;;;;;3.63;1.08;;;13.50;96.70;;;;;;5101989;28;20100;-76
2021/05/27 03:40:14;;;;;;;3.28;0.90;;;13.50;96.70;;;;;;5100560;28;20039;-76
2021/05/27 03:42:50;;;;;;;3.38;0.77;;;13.60;96.70;;;;;;5105810;27;20073;-76
2021/05/27 03:45:20;;;;;;;3.55;0.82;;;13.60;96.70;;;;;;5104668;27;20126;-76
2021/05/27 03:48:03;;;;;;;2.70;0.93;;;13.50;96.70;;;;;;5087256;27;20044;-76
2021/05/27 03:50:33;;;;;;;2.63;0.90;;;13.50;96.70;;;;;;5105690;27;20051;-76
2021/05/27 03:53:06;;;;;;;6.88;0.90;;;13.50;96.70;;;;;;5103076;27;20042;-76
2021/05/27 03:55:35;;;;;;;5.07;0.88;;;13.40;96.70;;;;;;5099025;28;20058;-76
2021/05/27 04:00:58;;;;;;;4.38;1.02;;;13.40;96.70;;;;;;5103054;27;20089;-75
2021/05/27 04:09:26;;;;;;;7.25;1.40;;;13.40;96.70;;;;;;5104784;27;20119;-76
2021/05/27 04:12:45;;;;;;;3.90;1.20;;;13.30;96.70;;;;;;5108160;27;20046;-76
2021/05/27 04:17:40;;;;;;;3.92;1.10;;;13.40;96.70;;;;;;5099977;27;20047;-76
2021/05/27 04:20:16;;;;;;;5.20;1.60;;;13.30;96.70;;;;;;5081179;28;20047;-76
2021/05/27 04:22:52;;;;;;;6.22;2.20;;;13.40;96.70;;;;;;5097248;27;21230;-76
2021/05/27 04:25:23;;;;;;;5.18;1.85;;;13.40;96.70;;;;;;5105556;27;20039;-76
2021/05/27 04:27:58;;;;;;;5.85;2.00;;;13.40;96.70;;;;;;5100051;27;20474;-76
2021/05/27 04:30:30;;;;;;;4.55;1.90;;;13.40;96.70;;;;;;5102512;27;20071;-76
2021/05/27 04:33:07;;;;;;;3.67;2.08;;;13.40;96.70;;;;;;5083960;28;20071;-76
2021/05/27 04:35:51;;;;;;;4.65;1.60;;;13.50;96.70;;;;;;5104440;27;20032;-76
2021/05/27 04:38:21;;;;;;;6.10;1.73;;;13.50;96.70;;;;;;5100414;28;20570;-76
2021/05/27 04:40:57;;;;;;;3.03;1.20;;;13.50;96.70;;;;;;5103621;27;20051;-76
2021/05/27 04:43:30;;;;;;;2.15;1.10;;;13.50;96.70;;;;;;5097462;28;20111;-76
2021/05/27 04:46:02;;;;;;;3.50;1.63;;;13.60;96.70;;;;;;5107937;27;20039;-76
2021/05/27 04:48:35;;;;;;;4.40;1.58;;;13.70;96.70;;;;;;5083188;28;20162;-76
2021/05/27 04:51:05;;;;;;;5.32;1.30;;;13.70;96.70;;;;;;5099136;28;20335;-76
2021/05/27 04:53:36;;;;;;;5.57;1.80;;;13.80;96.70;;;;;;5099434;28;20051;-75
2021/05/27 04:56:10;;;;;;;6.93;2.10;;;13.70;96.70;;;;;;5098391;27;20060;-76
2021/05/27 04:58:39;;;;;;;6.20;2.58;;;13.60;96.70;;;;;;5084785;28;20051;-76
2021/05/27 05:01:09;;;;;;;7.28;2.75;;;13.70;96.70;;;;;;5101538;27;20131;-76
2021/05/27 05:03:38;;;;;;;6.85;2.88;;;13.80;96.70;;;;;;5098001;27;20039;-77
2021/05/27 05:06:07;;;;;;;5.38;1.80;;;13.90;96.70;;;;;;5100713;28;20039;-76
2021/05/27 05:08:36;;;;;;;3.00;1.80;;;14.00;96.70;;;;;;5100671;28;20516;-76
2021/05/27 05:11:06;;;;;;;6.57;2.95;;;14.10;96.70;;;;;;5100464;27;20069;-76
2021/05/27 05:13:35;;;;;;;6.57;2.25;;;14.20;96.70;;;;;;5103021;27;20063;-76
2021/05/27 05:16:08;;;;;;;4.22;1.70;;;14.20;96.70;;;;;;5098118;28;20048;-76
2021/05/27 05:18:37;;;;;;;5.75;2.47;;;14.30;96.70;;;;;;5104902;27;20069;-76
2021/05/27 05:21:07;;;;;;;4.80;1.63;;;14.40;96.70;;;;;;5102787;27;20039;-76
2021/05/27 05:23:36;;;;;;;4.57;1.80;;;14.50;96.70;;;;;;5100968;27;20583;-77
2021/05/27 05:26:05;;;;;;;4.57;1.45;;;14.70;96.70;;;;;;5086179;28;20043;-76
2021/05/27 05:28:34;;;;;;;5.60;1.30;;;14.80;96.70;;;;;;5106532;27;20093;-77
2021/05/27 05:31:03;;;;;;;5.25;1.50;;;14.90;96.70;;;;;;5083303;28;20050;-76
2021/05/27 05:33:38;;;;;;;3.20;1.35;;;15.00;96.70;;;;;;5102491;27;20047;-76
2021/05/27 05:36:08;;;;;;;5.80;1.33;;;15.00;96.70;;;;;;5100544;28;20122;-77
2021/05/27 05:38:40;;;;;;;5.25;1.20;;;15.10;96.70;;;;;;5091701;27;20048;-76
2021/05/27 05:41:11;;;;;;;3.50;1.00;;;15.10;96.70;;;;;;5097416;27;20495;-76
2021/05/27 05:43:42;;;;;;;5.03;1.40;;;15.20;96.70;;;;;;5102896;27;20044;-76
2021/05/27 05:46:14;;;;;;;5.88;1.38;;;15.30;96.70;;;;;;5103232;28;20047;-77
2021/05/27 05:48:47;;;;;;;4.95;1.45;;;15.30;96.70;;;;;;5097815;27;20546;-77
2021/05/27 05:51:20;;;;;;;5.88;1.33;;;15.40;96.70;;;;;;5099289;27;20043;-77
2021/05/27 05:53:55;;;;;;;5.47;1.63;;;15.40;96.70;;;;;;5082110;28;20048;-77
2021/05/27 05:56:30;;;;;;;5.82;1.40;;;15.50;96.70;;;;;;5092749;28;20719;-75
2021/05/27 05:59:04;;;;;;;6.22;1.50;;;15.60;96.70;;;;;;5103932;27;20043;-75
2021/05/27 06:01:35;;;;;;;6.65;1.75;;;15.70;96.70;;;;;;5117511;27;20062;-75
2021/05/27 06:04:14;;;;;;;3.25;1.38;;;15.80;96.70;;;;;;5082993;28;20043;-74
2021/05/27 06:07:05;;;;;;;5.10;1.85;;;16.00;96.70;;;;;;5099855;28;20044;-75
2021/05/27 06:09:40;;;;;;;3.63;1.80;;;15.90;96.70;;;;;;5103724;27;20039;-74
2021/05/27 06:12:09;;;;;;;3.80;1.88;;;15.90;96.70;;;;;;5099870;28;20341;-76
2021/05/27 06:14:38;;;;;;;6.25;2.58;;;15.80;96.70;;;;;;5100360;28;20539;-75
2021/05/27 06:17:07;;;;;;;5.72;2.05;;;15.90;96.70;;;;;;5111532;27;20683;-74
2021/05/27 06:19:37;;;;;;;3.50;1.67;;;16.00;96.70;;;;;;5103602;27;20047;-75
2021/05/27 06:22:17;;;;;;;6.70;1.80;;;16.10;96.70;;;;;;5090775;28;20073;-75
2021/05/27 06:24:51;;;;;;;5.78;1.90;;;16.10;96.70;;;;;;5107154;27;20138;-75
2021/05/27 06:27:21;;;;;;;7.30;2.67;;;16.10;96.70;;;;;;5107074;27;20434;-76
2021/05/27 06:29:50;;;;;;;6.15;1.83;;;16.10;96.70;;;;;;5104345;28;20781;-76
2021/05/27 06:32:19;;;;;;;5.78;1.80;;;16.20;96.70;;;;;;5107394;27;20327;-77
2021/05/27 06:34:52;;;;;;;4.85;1.90;;;16.20;96.70;;;;;;5102233;27;20187;-76
2021/05/27 06:37:21;;;;;;;7.22;1.65;;;16.20;96.70;;;;;;5104987;27;20328;-77
2021/05/27 06:39:50;;;;;;;5.82;1.98;;;16.20;96.70;;;;;;5102672;27;20040;-77
2021/05/27 06:42:19;;;;;;;4.88;2.10;;;16.10;96.70;;;;;;5107395;27;20656;-76
2021/05/27 06:44:52;;;;;;;6.80;1.90;;;16.10;96.70;;;;;;5101384;27;20027;-76
2021/05/27 06:47:25;;;;;;;5.18;1.80;;;16.10;96.70;;;;;;5106942;27;20474;-75
2021/05/27 06:50:02;;;;;;;9.15;2.20;;;16.20;96.70;;;;;;5089802;28;20070;-76
2021/05/27 06:52:38;;;;;;;8.98;2.20;;;16.30;96.70;;;;;;5106250;27;20385;-76
2021/05/27 06:55:14;;;;;;;6.15;2.00;;;16.30;96.70;;;;;;5099783;27;20047;-76
2021/05/27 06:57:43;;;;;;;4.78;2.20;;;16.40;96.70;;;;;;5084072;28;20047;-76
2021/05/27 07:00:21;;;;;;;7.90;1.92;;;16.50;96.70;;;;;;5111052;27;20050;-76
2021/05/27 07:02:52;;;;;;;4.80;1.77;;;16.50;96.70;;;;;;5086506;27;20139;-76
2021/05/27 07:05:30;;;;;;;9.63;2.83;;;16.60;96.70;;;;;;5104578;27;20047;-76
2021/05/27 07:08:04;;;;;;;7.22;1.95;;;16.60;96.70;;;;;;5105367;27;20128;-76
2021/05/27 07:10:39;;;;;;;7.40;2.25;;;16.60;96.70;;;;;;5086747;28;20055;-76
2021/05/27 07:13:12;;;;;;;6.18;2.20;;;16.60;96.70;;;;;;5101688;27;20432;-76
2021/05/27 07:15:44;;;;;;;8.38;2.25;;;16.70;96.70;;;;;;5105791;27;20047;-76
2021/05/27 07:18:19;;;;;;;6.88;1.90;;;16.70;96.70;;;;;;5103882;27;20057;-76
2021/05/27 07:20:58;;;;;;;6.82;2.47;;;16.70;96.70;;;;;;5110032;27;20047;-76
2021/05/27 07:23:34;;;;;;;7.30;2.10;;;16.70;96.70;;;;;;5087431;28;20455;-75
2021/05/27 07:26:12;;;;;;;5.63;1.70;;;16.80;96.70;;;;;;5105253;28;20040;-75
2021/05/27 07:28:41;;;;;;;6.07;1.80;;;16.90;96.70;;;;;;5103758;28;20427;-75
2021/05/27 07:31:13;;;;;;;6.93;2.28;;;17.00;96.70;;;;;;5101746;28;20051;-76
2021/05/27 07:33:42;;;;;;;7.47;1.88;;;17.00;96.70;;;;;;5085865;27;20092;-75
2021/05/27 07:36:20;;;;;;;5.78;2.00;;;17.10;96.70;;;;;;5103155;27;20039;-76
2021/05/27 07:38:56;;;;;;;7.47;2.53;;;17.10;96.70;;;;;;5098032;27;20047;-76
2021/05/27 07:41:30;;;;;;;8.23;2.17;;;17.20;96.70;;;;;;5102223;28;20496;-76
2021/05/27 07:44:04;;;;;;;7.53;2.17;;;17.20;96.70;;;;;;5104608;27;20087;-75
2021/05/27 07:46:36;;;;;;;;;;;17.30;96.70;;;;;;5102538;28;20047;-76
2021/05/27 07:49:05;;;;;;;8.48;3.00;;;17.40;96.70;;;;;;5102964;27;19996;-76
2021/05/27 07:51:35;;;;;;;9.27;3.97;;;17.50;96.70;;;;;;5098761;27;20505;-76
2021/05/27 07:54:05;;;;;;;14.30;3.38;;;17.50;96.70;;;;;;5103696;27;20931;-75
2021/05/27 07:56:34;;;;;;;9.52;3.00;;;17.60;96.70;;;;;;5101206;27;20047;-76
2021/05/27 07:59:09;;;;;;;7.70;2.25;;;17.60;96.70;;;;;;5100323;28;20138;-76
2021/05/27 08:01:37;;;;;;;8.63;2.22;;;17.70;96.70;;;;;;5101191;28;20058;-76
2021/05/27 08:04:06;;;;;;;12.30;3.78;;;17.80;96.70;;;;;;5100516;28;20043;-76
2021/05/27 08:06:36;;;;;;;7.03;2.35;;;17.90;96.70;;;;;;5102641;27;20097;-76
2021/05/27 08:09:07;;;;;;;7.78;1.88;;;17.90;96.70;;;;;;5104566;27;20054;-76
2021/05/27 08:11:36;;;;;;;11.32;2.08;;;17.90;96.70;;;;;;5086132;27;20409;-76
2021/05/27 08:14:05;;;;;;;8.00;1.65;;;17.80;96.70;;;;;;5101642;27;20039;-76
2021/05/27 08:16:34;;;;;;;6.43;1.90;;;18.00;96.70;;;;;;5083737;28;20519;-76
2021/05/27 08:19:04;;;;;;;6.00;1.58;;;18.10;96.70;;;;;;5083007;28;20045;-76
2021/05/27 08:21:34;;;;;;;7.07;1.80;;;18.10;96.70;;;;;;5102038;28;20500;-76
2021/05/27 08:24:05;;;;;;;8.95;1.98;;;18.20;96.70;;;;;;5101400;27;20032;-76
2021/05/27 08:26:34;;;;;;;5.85;1.70;;;18.40;96.70;;;;;;5084069;28;20138;-76
2021/05/27 08:29:03;;;;;;;3.47;1.60;;;18.50;96.70;;;;;;5099891;27;20036;-76
2021/05/27 08:31:32;;;;;;;5.65;1.40;;;18.50;96.70;;;;;;5082665;28;20052;-76
2021/05/27 08:34:01;;;;;;;7.40;1.45;;;18.50;96.70;;;;;;5101459;27;20036;-76
2021/05/27 08:36:30;;;;;;;8.93;1.42;;;18.60;96.70;;;;;;5109413;27;20036;-76
2021/05/27 08:38:58;;;;;;;5.65;1.45;;;18.60;96.70;;;;;;5100123;28;20043;-76
2021/05/27 08:41:28;;;;;;;9.45;1.80;;;18.70;96.70;;;;;;5106090;27;20148;-76
2021/05/27 08:43:57;;;;;;;5.32;2.00;;;18.70;96.70;;;;;;5101760;27;20436;-76
2021/05/27 08:46:26;;;;;;;6.75;1.90;;;18.70;96.70;;;;;;5105929;27;20040;-76
2021/05/27 08:48:55;;;;;;;8.10;2.45;;;18.80;96.70;;;;;;5085630;27;20039;-76
2021/05/27 08:51:25;;;;;;;10.52;2.20;;;19.10;96.70;;;;;;5098550;27;20104;-76
2021/05/27 08:53:55;;;;;;;7.43;1.50;;;19.10;96.70;;;;;;5101041;28;20085;-76
2021/05/27 08:56:26;;;;;;;5.18;1.55;;;19.10;96.70;;;;;;5100136;28;20176;-76
2021/05/27 08:59:00;;;;;;;5.53;1.33;;;19.30;96.70;;;;;;5099597;28;20442;-76
2021/05/27 09:01:33;;;;;;;7.78;1.58;;;19.40;96.70;;;;;;5106239;27;20399;-75
2021/05/27 09:04:06;;;;;;;6.10;1.30;;;19.60;96.70;;;;;;5102900;27;20046;-75
2021/05/27 09:06:54;;;;;;;3.95;1.30;;;19.50;96.70;;;;;;5100684;27;20043;-76
2021/05/27 09:09:31;;;;;;;;;;;19.50;96.70;;;;;;5094931;28;20054;-76
2021/05/27 09:12:27;;;;;;;5.07;1.23;;;19.60;96.70;;;;;;5094907;28;19946;-76
2021/05/27 09:14:58;;;;;;;7.25;1.33;;;19.50;95.90;;;;;;5105567;27;20031;-76
2021/05/27 09:17:44;;;;;;;4.93;0.82;;;19.60;94.90;;;;;;5083457;28;20088;-76
2021/05/27 09:20:19;;;;;;;4.68;1.23;;;19.60;94.50;;;;;;5102267;27;20043;-76
2021/05/27 09:23:06;;;;;;;6.65;1.20;;;19.70;95.20;;;;;;5100640;28;20044;-76
2021/05/27 09:25:36;;;;;;;5.53;1.30;;;19.80;94.80;;;;;;5099374;28;20047;-76
2021/05/27 09:28:06;;;;;;;4.50;1.42;;;19.90;95.90;;;;;;5101228;27;20043;-76
2021/05/27 09:30:47;;;;;;;9.35;2.28;;;19.90;96.00;;;;;;5097402;28;20357;-76
2021/05/27 09:33:16;;;;;;;6.35;1.60;;;20.00;95.70;;;;;;5100949;27;20040;-76
2021/05/27 09:35:45;;;;;;;4.05;1.15;;;19.90;95.20;;;;;;5099293;28;20088;-75
2021/05/27 09:38:14;;;;;;;4.05;1.58;;;19.90;95.20;;;;;;5084135;28;20059;-76
2021/05/27 09:40:46;;;;;;;4.65;1.38;;;19.90;94.90;;;;;;5097500;28;20073;-75
2021/05/27 09:43:21;;;;;;;5.72;1.45;;;20.00;94.60;;;;;;5098838;28;20047;-75
2021/05/27 09:46:03;;;;;;;8.10;1.65;;;20.20;95.40;;;;;;5102868;27;20040;-76
2021/05/27 09:48:32;;;;;;;2.90;1.00;;;20.30;94.00;;;;;;5101073;27;20220;-75
2021/05/27 09:51:02;;;;;;;4.68;1.15;;;20.40;93.10;;;;;;5098697;27;20070;-75
2021/05/27 09:53:37;;;;;;;3.97;1.05;;;20.40;91.70;;;;;;5100547;28;20083;-75
2021/05/27 09:56:07;;;;;;;3.30;1.17;;;20.40;91.70;;;;;;5100634;28;20060;-76
2021/05/27 09:58:49;;;;;;;4.57;1.30;;;20.50;92.60;;;;;;5100272;28;20035;-76
2021/05/27 10:01:19;;;;;;;5.25;1.25;;;20.60;94.20;;;;;;5099224;28;20492;-76
2021/05/27 10:03:48;;;;;;;4.18;1.48;;;20.60;94.30;;;;;;5097176;28;20043;-75
2021/05/27 10:06:17;;;;;;;4.47;1.33;;;20.60;94.70;;;;;;5101215;28;20031;-76
2021/05/27 10:08:53;;;;;;;7.00;1.63;;;20.70;94.00;;;;;;5100965;28;20058;-76
2021/05/27 10:11:24;;;;;;;6.32;1.38;;;20.70;94.70;;;;;;5106012;27;20055;-76
2021/05/27 10:13:54;;;;;;;5.28;1.52;;;20.80;94.30;;;;;;5099399;28;20051;-76
2021/05/27 10:16:24;;;;;;;5.03;1.42;;;21.10;94.00;;;;;;5099375;28;20117;-76
2021/05/27 10:18:55;;;;;;;3.38;1.00;;;21.20;92.40;;;;;;5097437;28;20048;-76
2021/05/27 10:21:25;;;;;;;5.82;1.67;;;21.20;91.20;;;;;;5101138;28;20130;-76
2021/05/27 10:23:54;;;;;;;7.30;1.50;;;21.20;90.00;;;;;;5093995;28;20074;-76
2021/05/27 10:26:24;;;;;;;5.45;1.50;;;21.20;89.30;;;;;;5100152;28;20492;-76
2021/05/27 10:29:13;;;;;;;4.80;1.17;;;21.30;88.80;;;;;;5097679;28;20043;-76
2021/05/27 10:31:47;;;;;;;4.22;1.02;;;21.40;88.20;;;;;;5100756;28;20043;-76
2021/05/27 10:34:41;;;;;;;7.10;1.58;;;21.40;87.40;;;;;;5100981;28;20039;-76
2021/05/27 10:37:10;;;;;;;5.28;1.65;;;21.50;89.10;;;;;;5103436;28;20047;-76
2021/05/27 10:39:42;;;;;;;7.03;1.63;;;21.60;87.10;;;;;;5100507;28;20040;-76
2021/05/27 10:42:18;;;;;;;4.82;1.42;;;21.70;88.40;;;;;;5100609;28;20591;-76
2021/05/27 10:45:08;;;;;;;4.28;1.20;;;21.80;87.50;;;;;;5094836;28;20063;-76
2021/05/27 10:47:38;;;;;;;5.60;1.10;;;22.00;87.40;;;;;;5099340;28;20059;-77
2021/05/27 10:50:09;;;;;;;7.38;1.77;;;22.10;85.80;;;;;;5099550;28;20039;-76
2021/05/27 10:52:44;;;;;;;7.60;1.35;;;22.10;86.60;;;;;;5096260;28;20098;-77
2021/05/27 10:55:51;;;;;;;3.03;1.17;;;22.40;86.60;;;;;;5101972;28;20047;-76
2021/05/27 10:59:04;;;;;;;3.72;1.10;;;22.40;83.20;;;;;;5093555;27;20048;-76
2021/05/27 11:02:07;;;;;;;6.32;1.27;;;22.40;84.40;;;;;;5083477;28;20079;-76
2021/05/27 11:04:40;;;;;;;8.05;1.55;;;22.40;84.10;;;;;;5100974;27;20427;-76
2021/05/27 11:07:29;;;;;;;4.90;1.30;;;22.30;87.60;;;;;;5101638;28;20047;-76
2021/05/27 11:09:59;;;;;;;6.70;1.60;;;22.50;89.60;;;;;;5117904;27;20058;-75
2021/05/27 11:12:30;;;;;;;5.15;1.30;;;22.50;88.20;;;;;;5104168;27;20088;-76
2021/05/27 11:15:20;;;;;;;7.03;1.98;;;22.50;87.00;;;;;;5106037;27;20516;-75
2021/05/27 11:18:07;;;;;;;4.30;1.40;;;22.40;86.60;;;;;;5105174;27;20044;-76
2021/05/27 11:20:36;;;;;;;6.03;1.55;;;22.50;86.70;;;;;;5103402;28;20093;-76
2021/05/27 11:23:20;;;;;;;4.18;1.13;;;22.80;87.60;;;;;;5104162;27;20031;-76
2021/05/27 11:25:50;;;;;;;4.40;0.82;;;22.90;85.90;;;;;;5102422;27;20054;-76
2021/05/27 11:28:29;;;;;;;2.88;0.82;;;23.00;84.90;;;;;;5100987;28;20043;-77
2021/05/27 11:30:58;;;;;;;3.47;1.10;;;22.90;83.80;;;;;;5106024;27;20156;-76
2021/05/27 11:33:38;;;;;;;3.63;0.93;;;22.90;83.40;;;;;;5102635;27;20401;-77
2021/05/27 11:36:22;;;;;;;6.45;1.50;;;23.00;85.20;;;;;;5098975;28;20032;-77
2021/05/27 11:38:53;;;;;;;6.93;1.27;;;23.10;85.40;;;;;;5102597;28;20039;-76
2021/05/27 11:41:23;;;;;;;3.75;0.90;;;23.10;84.80;;;;;;5105355;27;20131;-77
2021/05/27 11:43:55;;;;;;;5.82;1.13;;;23.00;82.80;;;;;;5103345;27;20096;-76
2021/05/27 11:46:29;;;;;;;3.65;1.30;;;22.80;84.40;;;;;;5101381;28;20071;-76
2021/05/27 11:48:59;;;;;;;3.88;1.20;;;23.00;84.70;;;;;;5084885;27;20461;-77
2021/05/27 11:51:33;;;;;;;4.00;1.27;;;23.20;84.40;;;;;;5114120;27;20039;-77
2021/05/27 11:54:05;;;;;;;2.83;0.75;;;22.90;83.60;;;;;;5102432;28;20138;-77
2021/05/27 11:56:38;;;;;;;4.65;1.00;;;23.00;84.40;;;;;;5103872;27;20083;-77
2021/05/27 11:59:10;;;;;;;5.50;0.93;;;23.10;84.30;;;;;;5103170;27;20489;-77
2021/05/27 12:01:41;;;;;;;5.47;1.10;;;23.10;84.20;;;;;;5085961;27;20071;-76
2021/05/27 12:04:15;;;;;;;6.43;1.73;;;23.40;83.50;;;;;;5101747;28;20027;-76
2021/05/27 12:07:00;;;;;;;6.47;1.13;;;23.60;84.10;;;;;;5104726;27;20039;-77
2021/05/27 12:09:38;;;;;;;5.93;1.20;;;23.80;83.60;;;;;;5100643;27;20047;-77
2021/05/27 12:12:20;;;;;;;4.03;1.38;;;23.50;83.60;;;;;;5087613;28;20054;-76
2021/05/27 12:14:55;;;;;;;5.75;1.05;;;23.30;83.70;;;;;;5101277;27;20122;-76
2021/05/27 12:17:27;;;;;;;5.50;1.02;;;23.50;84.30;;;;;;5099121;28;20031;-76
2021/05/27 12:20:03;;;;;;;5.07;1.10;;;23.60;82.70;;;;;;5082685;28;20044;-77
2021/05/27 12:22:52;;;;;;;4.53;0.95;;;23.60;81.80;;;;;;5100545;27;20104;-76
2021/05/27 12:25:23;;;;;;;5.78;1.00;;;23.50;81.40;;;;;;5101195;28;20044;-77
2021/05/27 12:27:54;;;;;;;4.90;1.05;;;23.40;82.30;;;;;;5104388;27;20043;-76
2021/05/27 12:30:25;;;;;;;5.50;0.95;;;23.60;81.40;;;;;;5086153;28;20047;-77
2021/05/27 12:32:56;;;;;;;5.72;1.13;;;23.80;81.90;;;;;;5099523;28;20755;-77
2021/05/27 12:35:27;;;;;;;5.63;1.33;;;23.70;80.00;;;;;;5100351;28;20039;-76
2021/05/27 12:38:06;;;;;;;3.15;1.13;;;23.60;80.00;;;;;;5102818;27;20035;-76
2021/05/27 12:40:40;;;;;;;4.85;0.98;;;23.70;80.50;;;;;;5101963;27;20648;-76
2021/05/27 12:43:30;;;;;;;5.25;1.13;;;23.70;79.90;;;;;;5083311;28;20462;-75
2021/05/27 12:46:05;;;;;;;3.50;0.93;;;23.80;79.90;;;;;;5098701;28;20048;-77
2021/05/27 12:48:53;;;;;;;7.35;1.20;;;23.80;79.10;;;;;;5099335;27;20496;-76
2021/05/27 12:51:27;;;;;;;6.45;1.70;;;24.00;79.20;;;;;;5100798;27;20059;-76
2021/05/27 12:53:58;;;;;;;3.10;0.95;;;23.90;77.70;;;;;;5102375;27;20044;-76
2021/05/27 12:56:29;;;;;;;2.95;0.70;;;23.80;75.90;;;;;;5104710;27;20039;-76
2021/05/27 12:59:07;;;;;;;2.03;0.60;;;23.80;74.20;;;;;;5110091;27;20079;-76
2021/05/27 13:01:39;;;;;;;6.32;1.27;;;23.70;72.10;;;;;;5099320;28;20036;-76
2021/05/27 13:04:09;;;;;;;3.60;0.82;;;23.80;74.60;;;;;;5101321;28;20541;-76
2021/05/27 13:07:06;;;;;;;2.58;0.80;;;24.00;73.90;;;;;;5100850;27;20116;-76
2021/05/27 13:09:50;;;;;;;4.72;1.23;;;24.10;71.80;;;;;;5079872;28;20048;-77
2021/05/27 13:12:20;;;;;;;4.63;1.30;;;24.10;75.60;;;;;;5097521;28;20039;-77
2021/05/27 13:15:02;;;;;;;5.57;1.10;;;24.20;76.60;;;;;;5100025;27;20057;-77
2021/05/27 13:17:31;;;;;;;4.35;1.00;;;24.30;77.40;;;;;;5096696;28;20499;-77
2021/05/27 13:20:00;;;;;;;3.42;0.90;;;24.50;76.60;;;;;;5099033;28;20039;-77
2021/05/27 13:22:31;;;;;;;5.85;1.20;;;24.40;76.10;;;;;;5097038;27;20099;-77
2021/05/27 13:25:07;;;;;;;6.40;1.40;;;24.40;76.90;;;;;;5095568;28;20032;-77
2021/05/27 13:27:49;;;;;;;6.57;1.00;;;24.30;76.70;;;;;;5098566;28;20054;-76
2021/05/27 13:30:39;;;;;;;2.95;0.80;;;24.30;76.20;;;;;;5083824;28;21496;-77
2021/05/27 13:33:16;;;;;;;4.10;0.80;;;24.30;75.20;;;;;;5100892;27;20082;-77
2021/05/27 13:35:46;;;;;;;5.28;1.23;;;24.10;74.90;;;;;;5084087;28;20047;-77